Airport View

Enter AWOS ICAO identifier for current METAR.

ex. KFNL

KSHL 200045Z AUTO 14006KT 10SM OVC007 00/00 A3017 RMK AO2

20 Oct 2020 00:49

Frequency: 119.775

Phone: 712-324-5159

Other Area AWOS: KORC - KSPW - KOTG - KLYV

TAF KFSD 192345Z 2000/2024 14005KT 4SM -DZ BR OVC009 TEMPO 2000/2001 2SM -DZ BR BKN005 OVC010 FM200300 13005KT P6SM OVC010 PROB30 2009/2011 P6SM -SN FM201100 14008KT 5SM -SN BR OVC014 FM201600 15012G21KT 6SM -RA BR OVC013 FM202000 20010G17KT P6SM BKN014